createdAt,value
2022-09-23T00:00:22.161Z,1008.22
2022-09-23T00:01:22.209Z,1008.21
2022-09-23T00:02:22.164Z,1008.19
2022-09-23T00:03:22.143Z,1008.18
2022-09-23T00:04:22.132Z,1008.18
2022-09-23T00:05:22.158Z,1008.13
2022-09-23T00:06:22.150Z,1008.13
2022-09-23T00:07:22.151Z,1008.15
2022-09-23T00:08:22.219Z,1008.15
2022-09-23T00:09:22.143Z,1008.18
2022-09-23T00:10:22.133Z,1008.14
2022-09-23T00:11:22.155Z,1008.16
2022-09-23T00:12:22.137Z,1008.14
2022-09-23T00:13:22.138Z,1008.17
2022-09-23T00:14:22.136Z,1008.14
2022-09-23T00:15:22.135Z,1008.15
2022-09-23T00:16:22.185Z,1008.16
2022-09-23T00:17:22.137Z,1008.11
2022-09-23T00:18:22.248Z,1008.15
2022-09-23T00:19:22.193Z,1008.11
2022-09-23T00:20:22.199Z,1008.15
2022-09-23T00:21:22.222Z,1008.13
2022-09-23T00:22:22.654Z,1008.13
2022-09-23T00:23:23.027Z,1008.12
2022-09-23T00:24:22.366Z,1008.08
2022-09-23T00:25:22.689Z,1008.08
2022-09-23T00:26:23.015Z,1008.07
2022-09-23T00:27:22.358Z,1008.07
2022-09-23T00:28:22.569Z,1008.08
2022-09-23T00:29:22.980Z,1008.1
2022-09-23T00:30:22.248Z,1008.03
2022-09-23T00:31:22.487Z,1008.02
2022-09-23T00:32:22.804Z,1008.03
2022-09-23T00:33:22.129Z,1008.07
2022-09-23T00:34:22.690Z,1008.01
2022-09-23T00:35:23.105Z,1008.03
2022-09-23T00:36:22.944Z,1008.01
2022-09-23T00:37:22.141Z,1008.03
2022-09-23T00:38:22.419Z,1008
2022-09-23T00:39:22.140Z,1008
2022-09-23T00:40:22.209Z,1008.03
2022-09-23T00:41:22.139Z,1008.01
2022-09-23T00:42:22.140Z,1007.97
2022-09-23T00:43:22.154Z,1008.01
2022-09-23T00:44:22.142Z,1007.99
2022-09-23T00:45:22.158Z,1007.98
2022-09-23T00:46:22.252Z,1008.01
2022-09-23T00:47:22.149Z,1007.98
2022-09-23T00:48:22.145Z,1007.96
2022-09-23T00:49:22.136Z,1007.93
2022-09-23T00:50:22.132Z,1007.95
2022-09-23T00:51:22.165Z,1007.87
2022-09-23T00:52:22.139Z,1007.92
2022-09-23T00:53:22.146Z,1007.95
2022-09-23T00:54:22.177Z,1007.9
2022-09-23T00:55:22.157Z,1007.92
2022-09-23T00:56:22.161Z,1007.86
2022-09-23T00:57:22.135Z,1007.87
2022-09-23T00:58:22.144Z,1007.84
2022-09-23T00:59:22.137Z,1007.84
2022-09-23T01:00:22.133Z,1007.88
2022-09-23T01:01:22.246Z,1007.85
2022-09-23T01:02:22.217Z,1007.78
2022-09-23T01:03:22.146Z,1007.84
2022-09-23T01:04:22.134Z,1007.84
2022-09-23T01:05:22.141Z,1007.83
2022-09-23T01:06:22.155Z,1007.81
2022-09-23T01:07:22.238Z,1007.8
2022-09-23T01:08:22.147Z,1007.81
2022-09-23T01:09:22.136Z,1007.8
2022-09-23T01:10:22.139Z,1007.78
2022-09-23T01:11:22.136Z,1007.76
2022-09-23T01:12:22.133Z,1007.75
2022-09-23T01:13:22.152Z,1007.71
2022-09-23T01:14:22.146Z,1007.74
2022-09-23T01:15:22.192Z,1007.72
2022-09-23T01:16:22.177Z,1007.7
2022-09-23T01:17:22.155Z,1007.72
2022-09-23T01:18:22.161Z,1007.71
2022-09-23T01:19:22.144Z,1007.7
2022-09-23T01:20:22.136Z,1007.68
2022-09-23T01:21:22.136Z,1007.67
2022-09-23T01:22:22.159Z,1007.65
2022-09-23T01:23:22.140Z,1007.66
2022-09-23T01:24:22.144Z,1007.64
2022-09-23T01:25:22.134Z,1007.62
2022-09-23T01:26:22.148Z,1007.67
2022-09-23T01:27:22.148Z,1007.64
2022-09-23T01:28:22.145Z,1007.63
2022-09-23T01:29:22.155Z,1007.58
2022-09-23T01:30:22.156Z,1007.56
2022-09-23T01:31:22.165Z,1007.58
2022-09-23T01:32:22.399Z,1007.53
2022-09-23T01:33:22.139Z,1007.52
2022-09-23T01:34:22.143Z,1007.52
2022-09-23T01:35:22.303Z,1007.5
2022-09-23T01:36:22.166Z,1007.5
2022-09-23T01:37:22.134Z,1007.5
2022-09-23T01:38:22.176Z,1007.53
2022-09-23T01:39:22.229Z,1007.48
2022-09-23T01:40:22.587Z,1007.5
2022-09-23T01:41:22.265Z,1007.46
2022-09-23T01:42:22.405Z,1007.47
2022-09-23T01:43:22.138Z,1007.44
2022-09-23T01:44:22.135Z,1007.42
2022-09-23T01:45:22.144Z,1007.42
2022-09-23T01:46:22.126Z,1007.45
2022-09-23T01:47:22.155Z,1007.41
2022-09-23T01:48:22.242Z,1007.44
2022-09-23T01:49:22.119Z,1007.42
2022-09-23T01:50:22.181Z,1007.37
2022-09-23T01:51:22.137Z,1007.36
2022-09-23T01:52:22.453Z,1007.36
2022-09-23T01:53:22.142Z,1007.3
2022-09-23T01:54:22.306Z,1007.34
2022-09-23T01:55:22.271Z,1007.39
2022-09-23T01:56:22.550Z,1007.37
2022-09-23T01:57:22.171Z,1007.35
2022-09-23T01:58:22.199Z,1007.39
2022-09-23T01:59:22.505Z,1007.35
2022-09-23T02:00:22.240Z,1007.35
2022-09-23T02:01:22.879Z,1007.39
2022-09-23T02:02:22.778Z,1007.33
2022-09-23T02:03:23.108Z,1007.34
2022-09-23T02:04:22.591Z,1007.39
2022-09-23T02:05:22.852Z,1007.35
2022-09-23T02:06:22.598Z,1007.37
2022-09-23T02:07:22.109Z,1007.37
2022-09-23T02:08:22.336Z,1007.4
2022-09-23T02:09:22.665Z,1007.4
2022-09-23T02:10:22.452Z,1007.39
2022-09-23T02:11:22.343Z,1007.42
2022-09-23T02:12:22.810Z,1007.4
2022-09-23T02:13:22.926Z,1007.44
2022-09-23T02:14:22.245Z,1007.42
2022-09-23T02:15:22.578Z,1007.41
2022-09-23T02:16:22.918Z,1007.4
2022-09-23T02:17:22.233Z,1007.38
2022-09-23T02:18:22.254Z,1007.4
2022-09-23T02:19:22.503Z,1007.42
2022-09-23T02:20:22.836Z,1007.41
2022-09-23T02:21:22.329Z,1007.4
2022-09-23T02:22:22.269Z,1007.39
2022-09-23T02:23:22.635Z,1007.42
2022-09-23T02:24:22.599Z,1007.4
2022-09-23T02:25:22.297Z,1007.41
2022-09-23T02:26:22.580Z,1007.42
2022-09-23T02:27:22.099Z,1007.39
2022-09-23T02:28:22.328Z,1007.41
2022-09-23T02:29:22.150Z,1007.42
2022-09-23T02:30:22.439Z,1007.39
2022-09-23T02:31:22.662Z,1007.38
2022-09-23T02:32:22.134Z,1007.39
2022-09-23T02:33:22.278Z,1007.36
2022-09-23T02:34:22.318Z,1007.35
2022-09-23T02:35:22.180Z,1007.37
2022-09-23T02:36:22.131Z,1007.37
2022-09-23T02:37:22.223Z,1007.32
2022-09-23T02:38:22.503Z,1007.35
2022-09-23T02:39:22.265Z,1007.32
2022-09-23T02:40:22.192Z,1007.32
2022-09-23T02:41:22.353Z,1007.26
2022-09-23T02:42:22.135Z,1007.28
2022-09-23T02:43:22.219Z,1007.25
2022-09-23T02:44:22.164Z,1007.26
2022-09-23T02:45:22.206Z,1007.25
2022-09-23T02:46:22.236Z,1007.23
2022-09-23T02:47:22.133Z,1007.2
2022-09-23T02:48:22.138Z,1007.24
2022-09-23T02:49:22.145Z,1007.18
2022-09-23T02:50:22.138Z,1007.21
2022-09-23T02:51:22.144Z,1007.18
2022-09-23T02:52:22.149Z,1007.17
2022-09-23T02:53:22.143Z,1007.16
2022-09-23T02:54:22.159Z,1007.19
2022-09-23T02:55:22.137Z,1007.15
2022-09-23T02:56:22.152Z,1007.11
2022-09-23T02:57:22.258Z,1007.12
2022-09-23T02:58:22.141Z,1007.14
2022-09-23T02:59:22.133Z,1007.09
2022-09-23T03:00:22.137Z,1007.08
2022-09-23T03:01:22.174Z,1007.03
2022-09-23T03:02:22.247Z,1007.07
2022-09-23T03:03:22.147Z,1007.04
2022-09-23T03:04:22.132Z,1007.04
2022-09-23T03:05:22.225Z,1007.05
2022-09-23T03:06:22.151Z,1007.07
2022-09-23T03:07:22.150Z,1007.07
2022-09-23T03:08:22.136Z,1007.03
2022-09-23T03:09:22.121Z,1007.06
2022-09-23T03:10:22.126Z,1007.04
2022-09-23T03:11:22.141Z,1007.07
2022-09-23T03:12:22.134Z,1007.05
2022-09-23T03:13:24.176Z,1007.02
2022-09-23T03:14:22.142Z,1006.99
2022-09-23T03:15:22.146Z,1006.99
2022-09-23T03:16:22.304Z,1006.98
2022-09-23T03:17:22.279Z,1006.98
2022-09-23T03:18:22.378Z,1006.97
2022-09-23T03:19:22.146Z,1006.93
2022-09-23T03:20:22.167Z,1006.94
2022-09-23T03:21:22.148Z,1006.93
2022-09-23T03:22:22.148Z,1006.91
2022-09-23T03:23:22.125Z,1006.87
2022-09-23T03:24:22.143Z,1006.87
2022-09-23T03:25:22.142Z,1006.91
2022-09-23T03:26:22.142Z,1006.88
2022-09-23T03:27:22.144Z,1006.91
2022-09-23T03:28:22.222Z,1006.9
2022-09-23T03:29:22.162Z,1006.82
2022-09-23T03:30:22.132Z,1006.86
2022-09-23T03:31:22.191Z,1006.82
2022-09-23T03:32:22.130Z,1006.79
2022-09-23T03:33:24.742Z,1006.79
2022-09-23T03:34:22.277Z,1006.75
2022-09-23T03:35:22.516Z,1006.75
2022-09-23T03:36:22.604Z,1006.75
2022-09-23T03:37:23.462Z,1006.75
2022-09-23T03:38:22.939Z,1006.75
2022-09-23T03:39:23.224Z,1006.76
2022-09-23T03:40:22.547Z,1006.74
2022-09-23T03:41:22.768Z,1006.75
2022-09-23T03:42:23.118Z,1006.78
2022-09-23T03:43:22.210Z,1006.7
2022-09-23T03:44:22.512Z,1006.7
2022-09-23T03:45:22.943Z,1006.71
2022-09-23T03:46:22.339Z,1006.68
2022-09-23T03:47:22.630Z,1006.68
2022-09-23T03:48:22.888Z,1006.67
2022-09-23T03:49:23.248Z,1006.67
2022-09-23T03:50:22.428Z,1006.66
2022-09-23T03:51:22.150Z,1006.65
2022-09-23T03:52:22.343Z,1006.7
2022-09-23T03:53:22.179Z,1006.66
2022-09-23T03:54:22.130Z,1006.6
2022-09-23T03:55:22.147Z,1006.62
2022-09-23T03:56:22.136Z,1006.56
2022-09-23T03:57:22.196Z,1006.56
2022-09-23T03:58:22.157Z,1006.59
2022-09-23T03:59:22.145Z,1006.55
2022-09-23T04:00:22.252Z,1006.55
2022-09-23T04:01:22.218Z,1006.51
2022-09-23T04:02:22.224Z,1006.52
2022-09-23T04:03:22.132Z,1006.49
2022-09-23T04:04:22.146Z,1006.42
2022-09-23T04:05:22.138Z,1006.44
2022-09-23T04:06:22.171Z,1006.44
2022-09-23T04:07:22.140Z,1006.42
2022-09-23T04:08:22.143Z,1006.42
2022-09-23T04:09:22.129Z,1006.39
2022-09-23T04:10:22.146Z,1006.35
2022-09-23T04:11:22.349Z,1006.35
2022-09-23T04:12:22.111Z,1006.34
2022-09-23T04:13:22.315Z,1006.31
2022-09-23T04:14:22.221Z,1006.35
2022-09-23T04:15:22.137Z,1006.35
2022-09-23T04:16:22.170Z,1006.34
2022-09-23T04:17:22.139Z,1006.33
2022-09-23T04:18:22.189Z,1006.3
2022-09-23T04:19:22.520Z,1006.34
2022-09-23T04:20:22.335Z,1006.33
2022-09-23T04:21:22.566Z,1006.3
2022-09-23T04:22:23.542Z,1006.33
2022-09-23T04:23:22.303Z,1006.32
2022-09-23T04:24:22.133Z,1006.29
2022-09-23T04:25:22.663Z,1006.32
2022-09-23T04:26:22.193Z,1006.26
2022-09-23T04:27:22.467Z,1006.32
2022-09-23T04:28:22.453Z,1006.33
2022-09-23T04:29:24.316Z,1006.29
2022-09-23T04:30:22.489Z,1006.27
2022-09-23T04:31:22.876Z,1006.29
2022-09-23T04:32:22.551Z,1006.26
2022-09-23T04:33:22.823Z,1006.27
2022-09-23T04:34:22.234Z,1006.25
2022-09-23T04:35:22.693Z,1006.26
2022-09-23T04:36:22.463Z,1006.34
2022-09-23T04:37:22.493Z,1006.35
2022-09-23T04:38:22.145Z,1006.35
2022-09-23T04:39:22.355Z,1006.35
2022-09-23T04:40:22.791Z,1006.37
2022-09-23T04:41:22.180Z,1006.39
2022-09-23T04:42:22.148Z,1006.38
2022-09-23T04:43:22.199Z,1006.38
2022-09-23T04:44:22.152Z,1006.36
2022-09-23T04:45:22.139Z,1006.35
2022-09-23T04:46:22.211Z,1006.36
2022-09-23T04:47:22.383Z,1006.38
2022-09-23T04:48:22.136Z,1006.36
2022-09-23T04:49:22.144Z,1006.37
2022-09-23T04:50:22.403Z,1006.35
2022-09-23T04:51:22.161Z,1006.36
2022-09-23T04:52:22.192Z,1006.36
2022-09-23T04:53:22.177Z,1006.37
2022-09-23T04:54:22.192Z,1006.37
2022-09-23T04:55:22.427Z,1006.37
2022-09-23T04:56:22.174Z,1006.33
2022-09-23T04:57:22.383Z,1006.34
2022-09-23T04:58:22.132Z,1006.37
2022-09-23T04:59:22.151Z,1006.39
2022-09-23T05:00:22.143Z,1006.38
2022-09-23T05:01:22.189Z,1006.42
2022-09-23T05:02:22.153Z,1006.41
2022-09-23T05:03:22.180Z,1006.4
2022-09-23T05:04:22.159Z,1006.42
2022-09-23T05:05:22.193Z,1006.41
2022-09-23T05:06:22.234Z,1006.4
2022-09-23T05:07:22.139Z,1006.4
2022-09-23T05:08:22.127Z,1006.4
2022-09-23T05:09:22.143Z,1006.38
2022-09-23T05:10:22.168Z,1006.43
2022-09-23T05:11:22.130Z,1006.41
2022-09-23T05:12:22.144Z,1006.4
2022-09-23T05:13:22.128Z,1006.4
2022-09-23T05:14:22.152Z,1006.38
2022-09-23T05:15:22.179Z,1006.37
2022-09-23T05:16:22.212Z,1006.33
2022-09-23T05:17:22.150Z,1006.32
2022-09-23T05:18:23.454Z,1006.27
2022-09-23T05:19:22.139Z,1006.28
2022-09-23T05:20:22.168Z,1006.33
2022-09-23T05:21:22.133Z,1006.31
2022-09-23T05:22:22.140Z,1006.27
2022-09-23T05:23:22.166Z,1006.3
2022-09-23T05:24:22.154Z,1006.25
2022-09-23T05:25:22.217Z,1006.27
2022-09-23T05:26:22.196Z,1006.2
2022-09-23T05:27:22.487Z,1006.22
2022-09-23T05:28:22.109Z,1006.21
2022-09-23T05:29:22.169Z,1006.19
2022-09-23T05:30:22.208Z,1006.2
2022-09-23T05:31:23.525Z,1006.18
2022-09-23T05:32:22.219Z,1006.15
2022-09-23T05:33:22.121Z,1006.15
2022-09-23T05:34:22.398Z,1006.13
2022-09-23T05:35:22.618Z,1006.11
2022-09-23T05:36:22.293Z,1006.12
2022-09-23T05:37:22.289Z,1006.12
2022-09-23T05:38:22.534Z,1006.12
2022-09-23T05:39:22.175Z,1006.16
2022-09-23T05:40:22.178Z,1006.12
2022-09-23T05:41:22.359Z,1006.13
2022-09-23T05:42:22.550Z,1006.14
2022-09-23T05:43:22.206Z,1006.11
2022-09-23T05:44:22.156Z,1006.1
2022-09-23T05:45:22.461Z,1006.1
2022-09-23T05:46:22.806Z,1006.1
2022-09-23T05:47:22.311Z,1006.07
2022-09-23T05:48:22.137Z,1006.1
2022-09-23T05:49:37.889Z,1006.06
2022-09-23T05:50:22.526Z,1006.04
2022-09-23T05:51:22.145Z,1005.99
2022-09-23T05:52:22.186Z,1006.02
2022-09-23T05:53:22.481Z,1006.01
2022-09-23T05:54:22.264Z,1006.02
2022-09-23T05:55:22.157Z,1006.06
2022-09-23T05:56:22.277Z,1006.03
2022-09-23T05:57:22.509Z,1006.04
2022-09-23T05:58:22.141Z,1006.05
2022-09-23T05:59:22.147Z,1006.07
2022-09-23T06:00:22.141Z,1006.08
2022-09-23T06:01:22.164Z,1006.02
2022-09-23T06:02:22.166Z,1006.02
2022-09-23T06:03:22.185Z,1006.05
2022-09-23T06:04:22.126Z,1006.04
2022-09-23T06:05:22.144Z,1006.06
2022-09-23T06:06:22.139Z,1006.1
2022-09-23T06:07:22.232Z,1006.14
2022-09-23T06:08:22.156Z,1006.13
2022-09-23T06:09:22.143Z,1006.13
2022-09-23T06:10:22.150Z,1006.18
2022-09-23T06:11:22.135Z,1006.19
2022-09-23T06:12:22.130Z,1006.17
2022-09-23T06:13:22.161Z,1006.14
2022-09-23T06:14:22.129Z,1006.19
2022-09-23T06:15:22.142Z,1006.18
2022-09-23T06:16:22.167Z,1006.13
2022-09-23T06:17:22.212Z,1006.18
2022-09-23T06:18:22.157Z,1006.12
2022-09-23T06:19:22.141Z,1006.13
2022-09-23T06:20:22.160Z,1006.13
2022-09-23T06:21:22.292Z,1006.16
2022-09-23T06:22:22.142Z,1006.12
2022-09-23T06:23:27.327Z,1006.1
2022-09-23T06:24:31.689Z,1006.13
2022-09-23T06:25:22.130Z,1006.13
2022-09-23T06:26:22.142Z,1006.13
2022-09-23T06:27:22.144Z,1006.09
2022-09-23T06:28:22.146Z,1006.11
2022-09-23T06:29:22.143Z,1006.07
2022-09-23T06:30:22.143Z,1006.11
2022-09-23T06:31:22.192Z,1006.08
2022-09-23T06:32:22.228Z,1006.06
2022-09-23T06:33:34.095Z,1006.08
2022-09-23T06:34:22.201Z,1006.08
2022-09-23T06:35:28.195Z,1006.07
2022-09-23T06:36:39.856Z,1006.07
2022-09-23T06:37:23.118Z,1006.05
2022-09-23T06:38:22.164Z,1006.04
2022-09-23T06:39:22.222Z,1006.02
2022-09-23T06:40:22.250Z,1006.02
2022-09-23T06:41:22.376Z,1006
2022-09-23T06:42:22.798Z,1006.01
2022-09-23T06:43:23.095Z,1005.99
2022-09-23T06:44:22.677Z,1005.98
2022-09-23T06:45:22.965Z,1006.02
2022-09-23T06:46:22.247Z,1006.03
2022-09-23T06:47:22.529Z,1006.03
2022-09-23T06:48:23.624Z,1006.04
2022-09-23T06:49:23.104Z,1006.03
2022-09-23T06:50:23.404Z,1006.07
2022-09-23T06:51:22.674Z,1006.06
2022-09-23T06:52:23.306Z,1006.06
2022-09-23T06:53:23.721Z,1006.04
2022-09-23T06:54:23.513Z,1006.09
2022-09-23T06:55:23.366Z,1006.04
2022-09-23T06:56:23.560Z,1006.06
2022-09-23T06:57:22.718Z,1006.05
2022-09-23T06:58:22.976Z,1006.04
2022-09-23T06:59:22.758Z,1006.1
2022-09-23T07:00:23.071Z,1006.08
2022-09-23T07:01:23.461Z,1006.1
2022-09-23T07:02:22.387Z,1006.09
2022-09-23T07:03:22.593Z,1006.02
2022-09-23T07:04:29.196Z,1006.03
2022-09-23T07:05:22.518Z,1006.04
2022-09-23T07:06:22.506Z,1006.03
2022-09-23T07:07:22.147Z,1006.04
2022-09-23T07:08:22.441Z,1006.04
2022-09-23T07:09:22.135Z,1006.04
2022-09-23T07:10:22.123Z,1006.07
2022-09-23T07:11:22.321Z,1006.06
2022-09-23T07:12:22.139Z,1006.12
2022-09-23T07:13:22.144Z,1006.1
2022-09-23T07:14:22.236Z,1006.12
2022-09-23T07:15:22.142Z,1006.13
2022-09-23T07:16:22.208Z,1006.11
2022-09-23T07:17:22.149Z,1006.11
2022-09-23T07:18:22.134Z,1006.13
2022-09-23T07:19:22.136Z,1006.13
2022-09-23T07:20:22.128Z,1006.1
2022-09-23T07:21:22.137Z,1006.08
2022-09-23T07:22:22.140Z,1006.1
2022-09-23T07:23:22.149Z,1006.08
2022-09-23T07:24:22.140Z,1006.08
2022-09-23T07:25:22.146Z,1006.1
2022-09-23T07:26:22.158Z,1006.13
2022-09-23T07:27:22.135Z,1006.12
2022-09-23T07:28:22.149Z,1006.1
2022-09-23T07:29:22.251Z,1006.13
2022-09-23T07:30:28.227Z,1006.12
2022-09-23T07:31:38.159Z,1006.09
2022-09-23T07:32:22.160Z,1006.13
2022-09-23T07:33:32.713Z,1006.1
2022-09-23T07:34:22.132Z,1006.11
2022-09-23T07:35:22.140Z,1006.13
2022-09-23T07:36:22.139Z,1006.16
2022-09-23T07:37:22.221Z,1006.2
2022-09-23T07:38:22.177Z,1006.15
2022-09-23T07:39:22.149Z,1006.18
2022-09-23T07:40:22.184Z,1006.17
2022-09-23T07:41:22.131Z,1006.2
2022-09-23T07:42:22.135Z,1006.22
2022-09-23T07:43:22.150Z,1006.21
2022-09-23T07:44:22.132Z,1006.21
2022-09-23T07:45:22.145Z,1006.15
2022-09-23T07:46:22.192Z,1006.15
2022-09-23T07:47:22.150Z,1006.16
2022-09-23T07:48:22.168Z,1006.16
2022-09-23T07:49:22.142Z,1006.13
2022-09-23T07:50:22.151Z,1006.12
2022-09-23T07:51:22.122Z,1006.13
2022-09-23T07:52:22.155Z,1006.13
2022-09-23T07:53:22.132Z,1006.17
2022-09-23T07:54:22.136Z,1006.2
2022-09-23T07:55:25.232Z,1006.15
2022-09-23T07:56:22.140Z,1006.16
2022-09-23T07:57:22.136Z,1006.16
2022-09-23T07:58:22.222Z,1006.17
2022-09-23T07:59:22.142Z,1006.19
2022-09-23T08:00:22.155Z,1006.13
2022-09-23T08:01:22.517Z,1006.13
2022-09-23T08:02:22.249Z,1006.16
2022-09-23T08:03:22.118Z,1006.14
2022-09-23T08:04:22.292Z,1006.18
2022-09-23T08:05:22.141Z,1006.18
2022-09-23T08:06:22.157Z,1006.17
2022-09-23T08:07:22.172Z,1006.2
2022-09-23T08:08:22.424Z,1006.17
2022-09-23T08:09:22.189Z,1006.21
2022-09-23T08:10:22.261Z,1006.2
2022-09-23T08:11:22.465Z,1006.2
2022-09-23T08:12:22.194Z,1006.2
2022-09-23T08:13:22.144Z,1006.19
2022-09-23T08:14:22.147Z,1006.2
2022-09-23T08:15:22.156Z,1006.2
2022-09-23T08:16:22.240Z,1006.18
2022-09-23T08:17:22.131Z,1006.2
2022-09-23T08:18:22.146Z,1006.19
2022-09-23T08:19:22.125Z,1006.22
2022-09-23T08:20:22.178Z,1006.21
2022-09-23T08:21:22.145Z,1006.19
2022-09-23T08:22:22.167Z,1006.17
2022-09-23T08:23:22.139Z,1006.17
2022-09-23T08:24:22.139Z,1006.15
2022-09-23T08:25:25.286Z,1006.08
2022-09-23T08:26:25.314Z,1006.08
2022-09-23T08:27:22.145Z,1006.06
2022-09-23T08:28:22.145Z,1006.07
2022-09-23T08:29:22.134Z,1006.03
2022-09-23T08:30:22.184Z,1006.03
2022-09-23T08:31:22.173Z,1006.04
2022-09-23T08:32:22.143Z,1006.03
2022-09-23T08:33:25.264Z,1006.07
2022-09-23T08:34:22.277Z,1006.03
2022-09-23T08:35:22.135Z,1006.02
2022-09-23T08:36:22.112Z,1006.05
2022-09-23T08:37:22.109Z,1006.02
2022-09-23T08:38:22.143Z,1006.03
2022-09-23T08:39:22.130Z,1006.04
2022-09-23T08:40:22.340Z,1006.06
2022-09-23T08:41:22.549Z,1006.04
2022-09-23T08:42:22.395Z,1006.02
2022-09-23T08:43:22.295Z,1005.99
2022-09-23T08:44:22.530Z,1005.95
2022-09-23T08:45:22.493Z,1005.98
2022-09-23T08:46:22.573Z,1006.01
2022-09-23T08:47:22.380Z,1006.02
2022-09-23T08:48:22.474Z,1006.04
2022-09-23T08:49:22.296Z,1006.05
2022-09-23T08:50:22.579Z,1006.02
2022-09-23T08:51:22.266Z,1006.01
2022-09-23T08:52:22.515Z,1006.02
2022-09-23T08:53:22.811Z,1006.01
2022-09-23T08:54:22.413Z,1006.01
2022-09-23T08:55:22.394Z,1006.01
2022-09-23T08:56:22.308Z,1006.03
2022-09-23T08:57:22.126Z,1006.01
2022-09-23T08:58:26.906Z,1006.05
2022-09-23T08:59:22.129Z,1006.01
2022-09-23T09:00:22.240Z,1006.01
2022-09-23T09:01:22.160Z,1006.01
2022-09-23T09:02:22.482Z,1006.02
2022-09-23T09:03:22.130Z,1006
2022-09-23T09:04:22.146Z,1006.02
2022-09-23T09:05:22.319Z,1006.02
2022-09-23T09:06:22.389Z,1006.03
2022-09-23T09:07:36.927Z,1006.06
2022-09-23T09:08:22.227Z,1006.03
2022-09-23T09:09:22.247Z,1006
2022-09-23T09:10:22.140Z,1005.99
2022-09-23T09:11:22.147Z,1006.01
2022-09-23T09:12:22.423Z,1005.99
2022-09-23T09:13:22.145Z,1005.96
2022-09-23T09:14:22.160Z,1005.96
2022-09-23T09:15:24.577Z,1005.98
2022-09-23T09:16:55.319Z,1005.95
2022-09-23T09:17:22.129Z,1005.99
2022-09-23T09:18:22.138Z,1005.99
2022-09-23T09:19:22.246Z,1005.94
2022-09-23T09:20:22.136Z,1005.93
2022-09-23T09:21:22.127Z,1005.9
2022-09-23T09:22:22.139Z,1005.93
2022-09-23T09:23:22.149Z,1005.94
2022-09-23T09:24:22.166Z,1005.94
2022-09-23T09:25:22.287Z,1005.97
2022-09-23T09:26:22.151Z,1005.99
2022-09-23T09:27:22.159Z,1005.93
2022-09-23T09:28:22.126Z,1005.94
2022-09-23T09:29:35.669Z,1005.89
2022-09-23T09:30:22.139Z,1005.85
2022-09-23T09:31:22.245Z,1005.86
2022-09-23T09:32:22.140Z,1005.89
2022-09-23T09:33:22.238Z,1005.87
2022-09-23T09:34:22.138Z,1005.87
2022-09-23T09:35:22.138Z,1005.86
2022-09-23T09:36:22.129Z,1005.88
2022-09-23T09:37:22.154Z,1005.9
2022-09-23T09:38:22.142Z,1005.89
2022-09-23T09:39:27.326Z,1005.86
2022-09-23T09:40:22.177Z,1005.86
2022-09-23T09:41:22.135Z,1005.83
2022-09-23T09:42:22.138Z,1005.79
2022-09-23T09:43:22.126Z,1005.8
2022-09-23T09:44:22.221Z,1005.77
2022-09-23T09:45:23.070Z,1005.78
2022-09-23T09:46:22.394Z,1005.77
2022-09-23T09:47:22.685Z,1005.78
2022-09-23T09:48:22.833Z,1005.78
2022-09-23T09:49:23.139Z,1005.77
2022-09-23T09:50:22.674Z,1005.77
2022-09-23T09:51:23.036Z,1005.76
2022-09-23T09:52:22.309Z,1005.75
2022-09-23T09:53:22.558Z,1005.69
2022-09-23T09:54:22.913Z,1005.69
2022-09-23T09:55:22.250Z,1005.71
2022-09-23T09:56:22.739Z,1005.66
2022-09-23T09:57:22.753Z,1005.66
2022-09-23T09:58:23.098Z,1005.66
2022-09-23T09:59:23.348Z,1005.66
2022-09-23T10:00:22.879Z,1005.63
2022-09-23T10:01:23.442Z,1005.64
2022-09-23T10:02:23.611Z,1005.62
2022-09-23T10:03:22.272Z,1005.61
2022-09-23T10:04:22.448Z,1005.61
2022-09-23T10:05:22.668Z,1005.62
2022-09-23T10:06:22.168Z,1005.59
2022-09-23T10:07:22.443Z,1005.6
2022-09-23T10:08:22.181Z,1005.58
2022-09-23T10:09:22.485Z,1005.55
2022-09-23T10:10:32.667Z,1005.54
2022-09-23T10:11:22.070Z,1005.58
2022-09-23T10:12:22.383Z,1005.61
2022-09-23T10:13:22.076Z,1005.57
2022-09-23T10:14:22.212Z,1005.53
2022-09-23T10:15:22.303Z,1005.6
2022-09-23T10:16:22.248Z,1005.55
2022-09-23T10:17:22.335Z,1005.6
2022-09-23T10:18:22.276Z,1005.61
2022-09-23T10:19:22.425Z,1005.6
2022-09-23T10:20:22.654Z,1005.61
2022-09-23T10:21:28.031Z,1005.61
2022-09-23T10:22:22.446Z,1005.56
2022-09-23T10:23:22.268Z,1005.58
2022-09-23T10:24:22.065Z,1005.56
2022-09-23T10:25:22.090Z,1005.61
2022-09-23T10:26:22.066Z,1005.54
2022-09-23T10:27:22.324Z,1005.52
2022-09-23T10:28:22.071Z,1005.53
2022-09-23T10:29:22.086Z,1005.57
2022-09-23T10:30:22.086Z,1005.52
2022-09-23T10:31:22.091Z,1005.52
2022-09-23T10:32:22.118Z,1005.55
2022-09-23T10:33:22.098Z,1005.52
2022-09-23T10:34:22.088Z,1005.54
2022-09-23T10:35:22.066Z,1005.52
2022-09-23T10:36:22.067Z,1005.46
2022-09-23T10:37:22.080Z,1005.46
2022-09-23T10:38:22.088Z,1005.46
2022-09-23T10:39:22.078Z,1005.5
2022-09-23T10:40:22.163Z,1005.49
2022-09-23T10:41:22.091Z,1005.52
2022-09-23T10:42:22.147Z,1005.48
2022-09-23T10:43:22.080Z,1005.47
2022-09-23T10:44:22.085Z,1005.48
2022-09-23T10:45:22.153Z,1005.48
2022-09-23T10:46:22.272Z,1005.47
2022-09-23T10:47:22.088Z,1005.41
2022-09-23T10:48:22.087Z,1005.4
2022-09-23T10:49:22.087Z,1005.41
2022-09-23T10:50:22.078Z,1005.45
2022-09-23T10:51:27.360Z,1005.46
2022-09-23T10:52:22.109Z,1005.43
2022-09-23T10:53:22.091Z,1005.42
2022-09-23T10:54:22.115Z,1005.41
2022-09-23T10:55:22.107Z,1005.38
2022-09-23T10:56:22.198Z,1005.38
2022-09-23T10:57:22.079Z,1005.34
2022-09-23T10:58:22.082Z,1005.34
2022-09-23T10:59:22.095Z,1005.33
2022-09-23T11:00:22.094Z,1005.34
2022-09-23T11:01:22.172Z,1005.32
2022-09-23T11:02:22.101Z,1005.31
2022-09-23T11:03:22.101Z,1005.3
2022-09-23T11:04:22.126Z,1005.29
2022-09-23T11:05:22.227Z,1005.31
2022-09-23T11:06:22.146Z,1005.29
2022-09-23T11:07:22.093Z,1005.29
2022-09-23T11:08:22.218Z,1005.31
2022-09-23T11:09:22.095Z,1005.26
2022-09-23T11:10:45.297Z,1005.25
2022-09-23T11:11:22.093Z,1005.26
2022-09-23T11:12:22.093Z,1005.26
2022-09-23T11:13:22.139Z,1005.23
2022-09-23T11:14:22.095Z,1005.26
2022-09-23T11:15:22.093Z,1005.22
2022-09-23T11:16:22.239Z,1005.19
2022-09-23T11:17:22.102Z,1005.18
2022-09-23T11:18:22.123Z,1005.18
2022-09-23T11:19:22.092Z,1005.17
2022-09-23T11:20:22.106Z,1005.18
2022-09-23T11:21:22.103Z,1005.18
2022-09-23T11:22:22.105Z,1005.17
2022-09-23T11:23:22.103Z,1005.16
2022-09-23T11:24:22.116Z,1005.11
2022-09-23T11:25:22.114Z,1005.15
2022-09-23T11:26:22.122Z,1005.1
2022-09-23T11:27:22.328Z,1005.1
2022-09-23T11:28:22.246Z,1005.08
2022-09-23T11:29:22.092Z,1005.1
2022-09-23T11:30:22.239Z,1005.09
2022-09-23T11:31:22.226Z,1005.11
2022-09-23T11:32:22.087Z,1005.09
2022-09-23T11:33:22.109Z,1005.09
2022-09-23T11:34:22.111Z,1005.13
2022-09-23T11:35:22.108Z,1005.14
2022-09-23T11:36:22.132Z,1005.12
2022-09-23T11:37:22.115Z,1005.1
2022-09-23T11:38:22.204Z,1005.08
2022-09-23T11:39:22.132Z,1005.03
2022-09-23T11:40:22.181Z,1005.06
2022-09-23T11:41:22.135Z,1005.08
2022-09-23T11:42:22.100Z,1005.03
2022-09-23T11:43:22.095Z,1005.04
2022-09-23T11:44:23.119Z,1005
2022-09-23T11:45:22.114Z,1005.05
2022-09-23T11:46:22.256Z,1005
2022-09-23T11:47:22.114Z,1004.98
2022-09-23T11:48:22.361Z,1004.94
2022-09-23T11:49:22.230Z,1004.92
2022-09-23T11:50:22.103Z,1004.92
2022-09-23T11:51:22.431Z,1004.94
2022-09-23T11:52:22.123Z,1004.94
2022-09-23T11:53:22.264Z,1004.94
2022-09-23T11:54:23.201Z,1004.92
2022-09-23T11:55:24.585Z,1004.95
2022-09-23T11:56:34.508Z,1004.92
2022-09-23T11:57:22.447Z,1004.87
2022-09-23T11:58:26.788Z,1004.89
2022-09-23T11:59:37.804Z,1004.93
2022-09-23T12:00:22.410Z,1004.86
2022-09-23T12:01:35.939Z,1004.91
2022-09-23T12:02:31.578Z,1004.9
2022-09-23T12:03:28.757Z,1004.83
2022-09-23T12:04:23.881Z,1004.82
2022-09-23T12:05:22.898Z,1004.81
2022-09-23T12:06:22.460Z,1004.84
2022-09-23T12:07:22.246Z,1004.77
2022-09-23T12:08:22.372Z,1004.81